Timeline UpdatesTrip UpdatesNews PostsPvt Posts♥♥Travel TipsAdmin PostsConv PostsFollowed PostsChat RequestsBlog PostsPNR Posts

Disclaimer
Search
 
 
Fri Dec 19, 2014 15:37:59 ISTHomeTrainsΣChainsAtlasPNRForumGalleryNewsFAQTripsMembersLoginFeedback
No Recent News for this Train
Other Trains in the News **new
Latest...
..
Mon Dec 30, 2013 (12:02AM)
⇐ Return Journey: Train# 19040

19039/Avadh Express

Time-Table HAS CHANGED.
Sep 03 2014 (6:37PM)
Change Departure Station:
Change Arrival Station:
Post a Train Travel TipPost a Train Travel Tip **new
Post a Comment/Question/Picture/VideoPost a Comment/Question/Picture/Video
Pantry/Catering
✓ Pantry Car Avbl
✓ Catering Avbl
Loco/Rake Reversals
LJN/Lucknow Junction NER (6);
RSA - Rake Sharing
19037/19038 have RSA with 19039/19040.
Rake/Coach Composition
LOCO-SLR-S15-S14-S13-S12-S11-S10-S9-S8-S7-S6-S5-S4-S3-S2-S1-PC-B2-B1-A1-GEN-GEN-SLR; Engine reverses at Lucknow
Loco
BDTS-LJN: BRC WAP-4 LJN-MFP: GD WDM-3A
News    PNR    Forum    Time-Table    Availability    Fare Chart    Map    Arr/Dep History    Trips    Gallery    ΣChains    X/O    Timeline    
Travel Time: 9h 35m    16 halts    Distance: 335 km    Avg Speed: 34 km/hr
Type: Mail/Express
Zone: WR/Western
Departs @ 12:15 (Avg 1h 34m late)
Platform# ???
 M W  S
Maghar/MHH 
Arrives @ 21:50 (Avg 2h 19m late)
Platform# 2
 M W  S
Muzaffarpur Junction/MFP 

16 halts. 56 intermediate Stations between Maghar and Muzaffarpur Junction

Show ALL intermediate Stations  Show Old Time-Table

#TrkCodeStation NameX/OArrivesAvgDepartsAvgHaltPFDay#KmSpeedElevZoneAddress
1/==/BDTSMumbai Bandra Terminus (5)  -22:40+521-1819.1234mWRMumbai 400050, Maharashtra
2/==/ADHMumbai Andheri (9)  22:56+722:58+82m81-1813.04212mWRMumbai, Maharashtra
3/==/BVIMumbai Borivali (8)  23:16+923:18+132m61-1800.46719mWRMumbai - 400092, Maharashtra
4/==/BORBoisar (3)  00:19+2100:21+222m22-1732.26017mWRBoisar Tel.no-02525-266626, Maharashtra
5/==/VAPIVapi (3)X01:33 01:31+1601:35 01:33+162m12-1661.96327mWRVapi, Gujarat
6/==/BLValsad (3)X  01:58+1402:00+152m22-1635.76515mWRValsad, Gujarat
7/==/STSurat (4)  03:03+1003:08+115m12-1567.06519mWRSurat 395001, Gujarat
8/==/AKVAnkleshwar Junction (4)X  03:54+1903:56+212m12-1517.07319mWRAnkleshwar, Gujarat
9/==/BRCVadodara Junction (7)XO  05:02+2405:12+2410m32-1437.27036mWRVadodara 390005, Gujarat
10/==/GDAGodhra Junction (3)  06:15+1906:18+183m--2-1363.380122mWRGodhra, Gujarat
11/==/DHDDahod (3)  07:13+4607:15+462m--2-1290.290313mWRDahod, Gujarat
12/==/MGNMeghnagar (3)X  07:37+5207:39+532m--2-1257.174317mWRJhabua, Madhya Pradesh
13/==/BMIBamnia (2)X  08:08+5508:10+542m--2-1221.534392mWRBamnia, Madhya Pradesh
14/==/RTMRatlam Junction (7)  09:30+2309:50+2520m--2-1176.872495mWRRatlam 457001, Madhya Pradesh
15/==/KUHKhachrod (2)X  10:12 10:13+3310:14 10:15+332m--2-1149.124497mWRUjjain, Madhya Pradesh
16/==/NADNagda Junction (4)X  10:55 10:50+1611:00 10:55+175m--2-1135.368468mWRNagda, Madhya Pradesh
17/==/MEPMahidpur Road  11:14 11:10+2211:16 11:12+212m--2-1118.390493mWCRGogapur, Madhya Pradesh
18/==/VMAVikramgarh Alot (2)X  11:33 11:28+2411:35 11:30+242m22-1094.473443mWCRKota Division, Madhya Pradesh
19/==/CMUChau Mahla (3)  11:53 11:48+2611:55 11:50+262m22-1072.666426mWCRJhalawar, Rajasthan
20/==/SVASuwasra (2)  12:08 12:04+2512:10 12:06+252m--2-1057.267450mWCRSuwasra, Madhya Pradesh
21/==/SGZShamgarh (3)X  12:23 12:18+2812:25 12:20+282m--2-1043.865463mWCRMandsaur, Madhya Pradesh
22/==/GOHGaroth (2)  12:33 12:30+2812:35 12:32+282m22-1032.985441mWCRMadhya Pradesh 458880, Madhya Pradesh
23/==/BWMBhawani Mandi (3)X  12:53 12:48+2912:55 12:50+292m--2-1010.376384mWCRBhawani Mandi, Madhya Pradesh
24/==/JHWJhalawar Road (3)  13:08 13:03+3113:10 13:05+312m--2-993.874361mWCRJhalawar City, Rajasthan
25/==/RMARamganj Mandi Junction (3)  13:20 13:15+2913:22 13:17+292m--2-981.454358mWCRRamganj Mandi, Rajasthan
26/==/MKXMorak (2)  13:32 13:27+2913:34 13:29+292m--2-972.481337mWCRMorak, Rajasthan
27/==/DKNTDakaniya Talav (2)  14:13 14:08+3314:15 14:10+342m12-919.528278mWCRKota, Rajasthan
28/==/KOTAKota Junction (5)  14:40 14:30+2614:50 14:40+2710m12-910.289256mWCRKota, Rajasthan
29/==/LKELakheri (3)  15:23 15:21+3815:25 15:23+382m--2-849.655228mWCRBundi, Rajasthan
30/==/IDGIndargarh Sumerganj Mandi (2)  15:35+4015:37+402m--2-838.678247mWCRIndargarh, Rajasthan
31/==/SWMSawai Madhopur Junction (4)  16:25 16:05+4716:30 16:10+455m--2-802.351266mWCRSawai Madhopur, Rajasthan
32/==/GGCGangapur City (3)X  17:23 17:25+2617:25 17:30+262 5m--2-738.468270mWCRGangapur, Rajasthan
33/==/SMBJShri Mahabirji (3)  17:50 18:00+2117:52 18:02+212m--2-704.361240mWCRKarauli, Rajasthan
34/==/HANHindaun City (2)  18:02 18:12+2218:04 18:14+222m--2-694.227230mWCRKarauli, Rajasthan
35/==/BXNBayana Junction (3)  19:23 19:28+819:25 19:30+92m--2-661.368198mWCRBayana, Rajasthan
36/--/RBSRupbas (2)X  20:09 20:00+2520:11 20:01+282 1m--2-627.157178mNCRJAGNER ROAD, Rajasthan
37/--/FTSFatehpur Sikri (2)  20:31 20:16+3020:33 20:18+362m--2-612.946176mNCRAgra, Uttar Pradesh
38/--/KLBKiraoli (1)  20:48 20:34+3820:50 20:35+392 1m12-600.628174mNCRKiraoli, Uttar Pradesh
39/-=/IDHIdgah Agra Junction (3)  21:26 21:21+3021:28 21:23+432m--2-578.98168mNCRAgra, Uttar Pradesh
40/==/AFAgra Fort (3)  21:45 21:40+3721:55 21:50+5210m12-576.814170mNCRRakabganj, Uttar Pradesh
41/==/TDLTundla Junction (5)XO  23:25+3923:35+4010m32-553.833167mNCRDistt.Firozabad, Uttar Pradesh
42/==/FZDFirozabad (4)X  00:05+3600:07+422m23-537.357164mNCRFirozabad, Uttar Pradesh
43/==/SKBShikohabad Junction (4)X  00:28+4000:30+442m23-517.485166mNCRDistrict Firozabad, Uttar Pradesh
44/==/ETWEtawah (5)X  01:09+1:0101:11+1:042m33-462.070154mNCRDistt. Etawah, Uttar Pradesh
45/==/BNTBharthana (3)XO  01:28+1:0901:30+1:132m--3-442.248147mNCRBharthana, Uttar Pradesh
46/==/PHDPhaphund (4)X  02:15+5902:17+1:072m--3-405.836146mNCRdist. Auraiya, Uttar Pradesh
47/==/CNBKanpur Central (10)  04:35+2304:45+2610m--3-322.747128mNCRKANPUR-208 001, Uttar Pradesh
48/==/ONUnnao Junction (5)X  05:06 05:07+4805:08 05:09+482m--3-305.243129mNRUnnao, Uttar Pradesh
49/==/LJNLucknow Junction NER (6)X↵¶06:25+3006:50+3125m43-251.410126mNERLucknow 226001, Uttar Pradesh
50/--/LCLucknow City (3)  07:14 07:18+2407:16 07:20+252m--3-246.731127mNERLucknow, Uttar Pradesh
51/--/BNZBadshahnagar (2)  07:33 07:32+2907:35 07:37+302 5m13-240.443116mNERLucknow, Uttar Pradesh
52/--/GTNRGomti Nagar (3)  07:41 07:43+3207:43 07:44+372 1m13-236.147117mNERLucknow, Uttar Pradesh
53/--/BBKBarabanki Junction (4)  08:10+4108:12+422m--3-215.877124mNRPin-225001, Uttar Pradesh
54/==/BUWBurhwal Junction (3)X  08:40 08:33+5408:42 08:35+552m--3-188.760119mNERBarabanki, Uttar Pradesh
55/==/JLDJarwal Road (2)X  09:00 08:51+5809:02 08:53+1:012m--3-172.645112mNERBehraich, Uttar Pradesh
56/==/CLJColonelGanj (2)  09:20 09:16+1:0509:22 09:18+1:102m--3-155.447108mNERGonda, Uttar Pradesh
57%==/GDGonda Junction (3)  10:15 09:55+1:1610:25 10:05+1:1310m23-126.580110mNERGonda 271001, Uttar Pradesh
58%==%MURMankapur Junction (5)X  10:48 10:26+1:1910:50 10:28+1:192m13-98.660104mNERDistrict Gonda, Uttar Pradesh
59%==%MSWMaskanwa (2)  11:03 10:42+1:2011:05 10:44+1:212m--3-84.559103mNERChhapaiya Rd, Uttar Pradesh
60%==%BVBabhnan (2)  11:20 11:00+1:2011:22 11:02+1:202m--3-68.866101mNERDistrict- Basti, Uttar Pradesh
61%==%BSTBasti (4)X  11:50 11:30+1:2911:55 11:35+1:295m--3-38.07190mNERBasti 272001, Uttar Pradesh
62%==%KLDKhalilabad (3)  12:18 12:00+1:3212:20 12:02+1:322m--3-8.54686mNERKhalilabad- 272175, Uttar Pradesh
63%==%MHHMaghar (3)»  12:34 12:13+1:3412:36 12:15+1:342m--30.03883mNERNH 28. Distt- SantKabirNagar- 272173, Uttar Pradesh
64%==%SWASahjanwa (2)  12:51 12:28+1:2912:53 12:30+1:292m--38.31580mNERGorakhpur - 273209, Uttar Pradesh
65%==%GKPGorakhpur Junction (10)  13:40+1:0213:55+1:0215m--325.44984mNERGorakhpur 273001, Uttar Pradesh
66|--|PPCPipraichX  14:18+1:2314:20+1:232m--344.44785mNERGorakhpur Bypass, Uttar Pradesh
67|--|CPJKaptanganj Junction  14:45+1:1914:50+1:185m--364.16189mNERCaptainganj, Uttar Pradesh
68|--|SBZSiswa Bazar  15:16+1:1615:18+1:172m--390.63494mNERSiswa Bazar, Uttar Pradesh
69|--|KZAKhada15:43+1:0815:45+1:082m--3104.92298mNERKhadda Katai Bharpurva Bandh, Uttar Pradesh
70|--|PNYAPaniahwa (2)  16:03+1:0116:05+1:052m--3111.53696mNERPaniyahawa Railway Station, Uttar Pradesh
71|--|BUGBagaha (2)X  16:49 16:42+1:0916:54 16:47+1:135m--3133.87393mECRBagaha, Bihar
72|--|HIRHarinagar  17:21 17:08+1:4617:23 17:10+1:522m--3159.44797mECRRamnagar, Bihar
73|--|NKENarkatiaganj Junction (3)  17:45 17:30+1:5517:50 17:35+1:595m--3174.95889mECRNarkatiaganj, Bihar
74|--|BTHBettiah (2)  18:34 18:13+2:0818:36 18:15+2:092m--3211.65979mECRBettiah, Bihar
75|--|SGLSagauli (3)X  18:57 18:38+2:1618:59 18:40+2:182m--3234.43373mECRSugauli, Bihar
76|--|BMKIBapudham Motihari (2)  19:17+2:0819:22+2:095m--3255.07172mECRMotihari, Bihar
77|--|CAAChakia (1)X  19:49+2:2419:51+2:282m13287.04066mECRChakia, Bihar
78|--|MAIMehsi (1)X  20:04+2:2720:06+2:292m13295.74064mECRMehsi, Bihar
79|--|MTRMotipur (1)X  20:26+2:2920:28+2:312m13309.01962mECRRatanpura, Bihar
80|--|MFPMuzaffarpur Junction (6)•  21:50+2:19-23335.1-57mECRMuzaffarpur, Bihar
Scroll to Top
Scroll to Bottom


Go to Mobile site